Time;durP1;ratioP1;P1;durP2;ratioP2;P2;SDS_P1;SDS_P2;PMS_P1;PMS_P2;Temp;Humidity;BMP_temperature;BMP_pressure;BME280_temperature;BME280_humidity;BME280_pressure;Samples;Min_cycle;Max_cycle;Signal;HPM_P1;HPM_P2
2022/03/06 00:00:08;;;;;;;4.10;4.00;;;17.00;60.80;;;;;;5054098;28;43437;-76
2022/03/06 00:02:39;;;;;;;4.20;4.10;;;17.00;60.90;;;;;;5072012;28;43985;-76
2022/03/06 00:05:10;;;;;;;3.97;3.87;;;17.10;60.80;;;;;;5069741;28;44151;-75
2022/03/06 00:07:38;;;;;;;4.20;4.10;;;17.30;60.40;;;;;;5053239;28;43986;-76
2022/03/06 00:10:08;;;;;;;3.83;3.73;;;17.30;60.00;;;;;;5036426;28;44032;-76
2022/03/06 00:12:40;;;;;;;3.83;3.73;;;17.30;59.90;;;;;;5069695;28;43423;-76
2022/03/06 00:15:13;;;;;;;3.73;3.63;;;17.20;60.00;;;;;;5051876;28;45757;-76
2022/03/06 00:17:41;;;;;;;4.00;3.90;;;17.20;60.20;;;;;;5069223;28;43973;-76
2022/03/06 00:20:13;;;;;;;3.77;3.67;;;17.10;60.30;;;;;;5053839;28;43883;-76
2022/03/06 00:22:42;;;;;;;3.60;3.50;;;17.10;60.60;;;;;;5070023;28;44177;-76
2022/03/06 00:25:11;;;;;;;3.90;3.80;;;17.00;60.60;;;;;;5051479;28;45143;-76
2022/03/06 00:27:39;;;;;;;3.57;3.47;;;17.00;60.70;;;;;;5068340;28;43922;-76
2022/03/06 00:30:08;;;;;;;4.33;4.13;;;17.00;60.80;;;;;;5019194;28;43928;-76
2022/03/06 00:32:37;;;;;;;4.23;4.07;;;17.00;60.90;;;;;;5051808;28;43957;-76
2022/03/06 00:35:07;;;;;;;3.97;3.80;;;16.90;60.80;;;;;;5052115;28;44022;-76
2022/03/06 00:37:38;;;;;;;3.80;3.70;;;16.90;60.90;;;;;;5035439;28;43987;-76
2022/03/06 00:40:12;;;;;;;4.00;3.90;;;17.00;61.00;;;;;;5051725;28;44013;-76
2022/03/06 00:42:41;;;;;;;3.90;3.80;;;17.00;60.90;;;;;;5068917;28;44031;-76
2022/03/06 00:45:11;;;;;;;4.33;4.13;;;17.10;60.60;;;;;;5035291;28;43982;-76
2022/03/06 00:47:39;;;;;;;3.80;3.70;;;17.30;60.20;;;;;;5086379;27;43936;-76
2022/03/06 00:50:10;;;;;;;4.37;4.27;;;17.50;59.80;;;;;;5055074;28;43834;-76
2022/03/06 00:52:40;;;;;;;3.53;3.43;;;17.60;59.50;;;;;;5072731;28;43979;-76
2022/03/06 00:55:09;;;;;;;3.90;3.77;;;17.60;59.20;;;;;;5071269;28;46009;-76
2022/03/06 00:57:38;;;;;;;3.40;3.30;;;17.50;59.20;;;;;;5038344;28;44084;-76
2022/03/06 01:00:09;;;;;;;3.90;3.80;;;17.40;59.40;;;;;;5071384;28;43942;-76
2022/03/06 01:02:38;;;;;;;3.67;3.57;;;17.30;59.60;;;;;;5090909;28;44013;-76
2022/03/06 01:05:08;;;;;;;3.60;3.50;;;17.30;59.90;;;;;;5071643;28;44269;-76
2022/03/06 01:07:37;;;;;;;3.50;3.40;;;17.20;60.00;;;;;;5072113;28;43500;-76
2022/03/06 01:10:09;;;;;;;3.70;3.60;;;17.10;60.10;;;;;;5055090;28;43929;-75
2022/03/06 01:12:38;;;;;;;3.17;3.07;;;17.10;60.30;;;;;;5072439;28;43901;-75
2022/03/06 01:15:07;;;;;;;3.50;3.40;;;17.00;60.30;;;;;;5054715;28;43847;-75
2022/03/06 01:17:36;;;;;;;3.40;3.30;;;17.00;60.40;;;;;;5055447;28;43929;-76
2022/03/06 01:20:07;;;;;;;3.80;3.70;;;17.00;60.70;;;;;;5038022;28;43906;-76
2022/03/06 01:22:35;;;;;;;4.13;4.03;;;17.10;60.60;;;;;;5054767;28;43957;-76
2022/03/06 01:25:07;;;;;;;4.13;4.00;;;17.20;60.10;;;;;;5037653;28;46016;-76
2022/03/06 01:27:35;;;;;;;3.70;3.60;;;17.30;59.80;;;;;;5054344;28;43883;-76
2022/03/06 01:30:05;;;;;;;3.57;3.47;;;17.30;59.60;;;;;;5038158;28;44021;-75
2022/03/06 01:32:34;;;;;;;3.60;3.50;;;17.20;59.80;;;;;;5037885;28;44291;-76
2022/03/06 01:35:02;;;;;;;4.00;3.90;;;17.20;60.10;;;;;;5037707;28;44138;-75
2022/03/06 01:37:30;;;;;;;3.70;3.60;;;17.10;60.00;;;;;;5050332;28;43906;-75
2022/03/06 01:39:59;;;;;;;3.57;3.47;;;17.10;60.20;;;;;;5033805;28;43858;-76
2022/03/06 01:42:30;;;;;;;3.70;3.60;;;17.00;60.30;;;;;;5034250;28;43940;-75
2022/03/06 01:44:58;;;;;;;3.40;3.30;;;17.00;60.40;;;;;;5050108;28;44095;-76
2022/03/06 01:47:34;;;;;;;3.70;3.60;;;17.00;60.50;;;;;;5033121;28;44506;-76
2022/03/06 01:50:03;;;;;;;3.57;3.47;;;16.90;60.50;;;;;;5034003;28;44267;-75
2022/03/06 01:52:32;;;;;;;3.60;3.50;;;16.90;60.50;;;;;;5051094;28;43893;-75
2022/03/06 01:55:00;;;;;;;3.80;3.70;;;16.90;60.50;;;;;;5033707;28;43972;-75
2022/03/06 01:57:31;;;;;;;3.63;3.53;;;16.90;60.60;;;;;;5033518;28;44008;-76
2022/03/06 01:59:59;;;;;;;3.40;3.30;;;17.00;60.80;;;;;;5051094;28;44105;-75
2022/03/06 02:02:30;;;;;;;3.70;3.60;;;17.10;60.40;;;;;;5026820;28;44114;-75
2022/03/06 02:05:00;;;;;;;3.50;3.40;;;17.30;60.00;;;;;;5035155;28;44103;-75
2022/03/06 02:07:28;;;;;;;3.37;3.27;;;17.50;59.60;;;;;;5051465;28;44018;-75
2022/03/06 02:09:57;;;;;;;3.70;3.60;;;17.60;59.10;;;;;;5034455;28;43834;-75
2022/03/06 02:12:26;;;;;;;3.87;3.77;;;17.60;58.90;;;;;;5035147;28;43997;-76
2022/03/06 02:14:57;;;;;;;3.00;3.00;;;17.50;58.90;;;;;;5034713;28;43952;-76
2022/03/06 02:17:28;;;;;;;3.30;3.20;;;17.40;59.10;;;;;;5032928;28;44096;-76
2022/03/06 02:19:57;;;;;;;3.73;3.57;;;17.30;59.40;;;;;;5048428;28;43991;-76
2022/03/06 02:22:31;;;;;;;3.40;3.30;;;17.20;59.60;;;;;;5048223;28;43949;-76
2022/03/06 02:25:00;;;;;;;3.67;3.57;;;17.20;59.80;;;;;;5030212;28;44083;-76
2022/03/06 02:27:29;;;;;;;3.53;3.43;;;17.10;59.90;;;;;;5047861;28;44202;-75
2022/03/06 02:29:57;;;;;;;2.83;2.83;;;17.10;60.20;;;;;;5046657;28;43343;-75
2022/03/06 02:32:26;;;;;;;3.70;3.60;;;17.00;60.00;;;;;;5029846;28;44207;-76
2022/03/06 02:34:54;;;;;;;3.40;3.30;;;17.00;60.10;;;;;;5046794;28;44029;-75
2022/03/06 02:37:23;;;;;;;3.57;3.47;;;17.00;60.40;;;;;;5014500;28;44268;-75
2022/03/06 02:39:53;;;;;;;3.70;3.60;;;17.10;60.40;;;;;;5014919;28;44013;-75
2022/03/06 02:42:25;;;;;;;3.40;3.30;;;17.20;59.90;;;;;;5031000;28;44284;-75
2022/03/06 02:44:54;;;;;;;3.87;3.77;;;17.30;59.50;;;;;;5030343;28;44227;-77
2022/03/06 02:47:22;;;;;;;3.00;3.00;;;17.20;59.40;;;;;;5013212;28;45541;-76
2022/03/06 02:49:51;;;;;;;3.70;3.60;;;17.20;59.60;;;;;;5013548;28;43955;-76
2022/03/06 02:52:19;;;;;;;3.40;3.30;;;17.10;59.70;;;;;;5014479;28;44113;-76
2022/03/06 02:54:48;;;;;;;3.10;3.00;;;17.10;59.80;;;;;;5030609;28;43996;-76
2022/03/06 02:57:19;;;;;;;3.40;3.30;;;17.00;59.90;;;;;;5013312;28;44182;-76
2022/03/06 02:59:47;;;;;;;3.03;2.93;;;17.00;60.00;;;;;;5029517;28;43970;-76
2022/03/06 03:02:18;;;;;;;3.50;3.40;;;17.00;60.10;;;;;;5013773;28;43901;-76
2022/03/06 03:04:47;;;;;;;3.10;3.03;;;16.90;60.20;;;;;;5013653;28;45120;-76
2022/03/06 03:07:16;;;;;;;3.40;3.30;;;16.90;60.20;;;;;;5032849;28;44078;-76
2022/03/06 03:09:44;;;;;;;3.07;2.97;;;16.90;60.20;;;;;;5015328;28;44080;-76
2022/03/06 03:12:13;;;;;;;3.40;3.30;;;16.90;60.30;;;;;;5013255;28;43916;-76
2022/03/06 03:14:44;;;;;;;3.67;3.57;;;16.90;60.40;;;;;;5015354;28;44184;-76
2022/03/06 03:17:12;;;;;;;3.57;3.47;;;16.90;60.30;;;;;;5030620;28;44035;-76
2022/03/06 03:19:41;;;;;;;3.60;3.50;;;17.10;60.00;;;;;;5046112;28;43922;-77
2022/03/06 03:22:10;;;;;;;3.17;3.07;;;17.30;59.60;;;;;;5029962;28;43914;-76
2022/03/06 03:24:39;;;;;;;3.67;3.57;;;17.40;59.20;;;;;;5014861;28;45772;-76
2022/03/06 03:27:09;;;;;;;3.23;3.13;;;17.50;58.90;;;;;;5014442;28;44618;-76
2022/03/06 03:29:38;;;;;;;3.77;3.67;;;17.50;58.80;;;;;;5030254;28;44009;-76
2022/03/06 03:32:09;;;;;;;3.43;3.33;;;17.40;58.80;;;;;;5014291;28;43946;-76
2022/03/06 03:34:37;;;;;;;3.43;3.33;;;17.30;59.00;;;;;;5030762;28;44047;-76
2022/03/06 03:37:06;;;;;;;3.07;3.00;;;17.20;59.20;;;;;;5045582;28;44404;-76
2022/03/06 03:39:34;;;;;;;3.57;3.47;;;17.10;59.30;;;;;;5049831;28;44023;-76
2022/03/06 03:42:03;;;;;;;3.40;3.30;;;17.10;59.50;;;;;;5050041;28;43965;-76
2022/03/06 03:44:31;;;;;;;3.17;3.07;;;17.00;59.60;;;;;;5066851;28;43824;-76
2022/03/06 03:47:01;;;;;;;3.30;3.20;;;17.00;59.80;;;;;;5033218;28;43977;-76
2022/03/06 03:49:31;;;;;;;3.57;3.47;;;17.00;59.90;;;;;;5048358;28;43393;-77
2022/03/06 03:52:00;;;;;;;3.57;3.27;;;16.90;60.00;;;;;;5050908;28;44087;-78
2022/03/06 03:54:29;;;;;;;3.30;3.20;;;17.00;60.20;;;;;;5049907;28;44865;-77
2022/03/06 03:56:57;;;;;;;3.50;3.40;;;17.00;60.00;;;;;;5066303;28;43962;-77
2022/03/06 03:59:26;;;;;;;3.33;3.23;;;17.20;59.60;;;;;;5051459;28;43430;-77
2022/03/06 04:01:55;;;;;;;3.40;3.30;;;17.20;59.40;;;;;;5002793;28;43881;-77
2022/03/06 04:04:24;;;;;;;3.30;3.20;;;17.20;59.30;;;;;;5033566;28;45037;-78
2022/03/06 04:06:54;;;;;;;3.17;3.07;;;17.20;59.50;;;;;;5033683;28;44078;-77
2022/03/06 04:09:23;;;;;;;3.37;3.27;;;17.10;59.60;;;;;;5048694;28;44038;-77
2022/03/06 04:11:51;;;;;;;3.00;2.90;;;17.00;59.80;;;;;;5035258;28;43456;-78
2022/03/06 04:14:20;;;;;;;3.00;2.90;;;17.00;59.90;;;;;;5035026;28;43998;-77
2022/03/06 04:16:49;;;;;;;3.70;3.43;;;16.90;59.90;;;;;;5051554;28;44045;-77
2022/03/06 04:19:17;;;;;;;3.27;3.17;;;17.00;60.10;;;;;;5035800;28;44133;-77
2022/03/06 04:21:46;;;;;;;3.30;3.20;;;16.90;60.20;;;;;;5037765;28;43892;-76
2022/03/06 04:24:16;;;;;;;3.70;3.50;;;16.80;60.10;;;;;;5038242;28;43861;-76
2022/03/06 04:26:45;;;;;;;4.60;4.20;;;16.80;60.20;;;;;;5038445;28;43966;-76
2022/03/06 04:29:14;;;;;;;4.93;4.43;;;16.80;60.30;;;;;;5036910;28;44006;-76
2022/03/06 04:31:43;;;;;;;7.60;5.13;;;16.80;60.30;;;;;;5055438;28;44037;-77
2022/03/06 04:34:11;;;;;;;6.17;5.03;;;16.80;60.40;;;;;;5035966;28;43926;-77
2022/03/06 04:36:40;;;;;;;9.77;5.30;;;16.90;60.10;;;;;;5054847;28;43972;-76
2022/03/06 04:39:09;;;;;;;10.70;6.07;;;17.20;59.90;;;;;;5055972;28;44037;-76
2022/03/06 04:41:41;;;;;;;10.53;5.40;;;17.30;59.40;;;;;;5022606;28;43944;-76
2022/03/06 04:44:10;;;;;;;9.80;5.60;;;17.40;59.00;;;;;;5055011;28;43953;-76
2022/03/06 04:46:38;;;;;;;12.27;6.43;;;17.40;58.80;;;;;;5072158;28;44172;-76
2022/03/06 04:49:07;;;;;;;10.97;6.47;;;17.40;58.90;;;;;;5023088;28;43401;-76
2022/03/06 04:51:36;;;;;;;12.37;6.83;;;17.30;59.10;;;;;;5039601;28;43919;-76
2022/03/06 04:54:07;;;;;;;10.43;6.43;;;17.20;59.40;;;;;;5056205;28;44721;-77
2022/03/06 04:56:39;;;;;;;12.90;6.20;;;17.10;59.50;;;;;;5055256;28;43892;-77
2022/03/06 04:59:07;;;;;;;12.33;6.97;;;17.00;59.60;;;;;;5038765;28;43957;-77
2022/03/06 05:01:36;;;;;;;10.77;6.77;;;17.00;59.90;;;;;;5056304;28;44025;-77
2022/03/06 05:04:05;;;;;;;13.07;6.87;;;16.90;59.90;;;;;;5055694;28;44951;-77
2022/03/06 05:06:34;;;;;;;10.77;6.50;;;16.90;60.00;;;;;;5054589;28;43859;-77
2022/03/06 05:09:03;;;;;;;12.13;7.40;;;16.90;60.10;;;;;;5038582;28;44025;-77
2022/03/06 05:11:33;;;;;;;13.03;7.03;;;16.80;60.10;;;;;;5054639;28;43974;-77
2022/03/06 05:14:03;;;;;;;13.50;7.30;;;16.90;60.20;;;;;;5038617;28;44070;-77
2022/03/06 05:16:31;;;;;;;12.83;6.97;;;17.00;59.80;;;;;;5053543;28;44137;-77
2022/03/06 05:19:01;;;;;;;14.70;7.47;;;17.10;59.40;;;;;;5038136;28;43392;-77
2022/03/06 05:21:29;;;;;;;10.83;6.70;;;17.10;59.20;;;;;;5054627;28;43856;-77
2022/03/06 05:23:59;;;;;;;10.53;6.30;;;17.10;59.30;;;;;;5021696;28;44205;-76
2022/03/06 05:26:27;;;;;;;9.80;6.13;;;17.10;59.40;;;;;;5037398;28;43870;-76
2022/03/06 05:28:55;;;;;;;8.60;6.67;;;17.10;59.60;;;;;;5036661;28;43979;-77
2022/03/06 05:31:25;;;;;;;11.80;6.70;;;17.00;59.60;;;;;;5036077;28;44280;-77
2022/03/06 05:33:56;;;;;;;11.07;6.33;;;17.00;59.80;;;;;;5067722;28;45352;-77
2022/03/06 05:36:24;;;;;;;10.07;6.47;;;16.90;59.80;;;;;;5034595;28;44351;-77
2022/03/06 05:38:53;;;;;;;8.70;6.27;;;16.90;59.90;;;;;;5052000;28;44012;-77
2022/03/06 05:41:21;;;;;;;8.00;5.70;;;16.90;60.00;;;;;;5036013;28;44030;-77
2022/03/06 05:43:50;;;;;;;8.93;6.57;;;16.90;60.00;;;;;;5051652;28;44055;-77
2022/03/06 05:46:18;;;;;;;10.40;5.67;;;16.80;60.00;;;;;;5034398;28;43918;-77
2022/03/06 05:48:49;;;;;;;8.33;5.83;;;16.80;60.00;;;;;;5034871;28;43358;-77
2022/03/06 05:51:20;;;;;;;8.63;6.53;;;16.80;60.20;;;;;;5039060;28;43966;-77
2022/03/06 05:53:50;;;;;;;8.80;5.90;;;16.90;60.10;;;;;;5055672;28;44101;-77
2022/03/06 05:56:19;;;;;;;8.53;6.53;;;17.10;59.80;;;;;;5034982;28;43914;-77
2022/03/06 05:58:49;;;;;;;7.90;6.50;;;17.30;59.50;;;;;;5034523;28;43962;-77
2022/03/06 06:01:18;;;;;;;6.20;5.53;;;17.40;59.00;;;;;;5034374;28;44140;-77
2022/03/06 06:03:49;;;;;;;9.20;6.17;;;17.40;58.80;;;;;;5034999;28;43985;-77
2022/03/06 06:06:18;;;;;;;9.70;6.20;;;17.40;58.80;;;;;;5034470;28;43870;-77
2022/03/06 06:08:47;;;;;;;8.70;5.67;;;17.30;58.90;;;;;;5017749;28;43435;-77
2022/03/06 06:11:16;;;;;;;7.33;5.50;;;17.20;59.10;;;;;;5051205;28;43921;-77
2022/03/06 06:13:44;;;;;;;5.80;5.17;;;17.10;59.30;;;;;;5035968;28;43936;-77
2022/03/06 06:16:13;;;;;;;7.17;5.50;;;17.00;59.70;;;;;;5019394;28;43494;-77
2022/03/06 06:18:42;;;;;;;5.73;5.03;;;17.00;59.60;;;;;;5036505;28;43838;-77
2022/03/06 06:21:16;;;;;;;5.90;5.30;;;16.90;59.70;;;;;;5068148;28;43970;-77
2022/03/06 06:23:44;;;;;;;6.43;5.60;;;16.90;59.80;;;;;;5067879;28;43800;-77
2022/03/06 06:26:13;;;;;;;5.70;5.20;;;16.80;59.80;;;;;;5051471;28;44048;-77
2022/03/06 06:28:42;;;;;;;6.23;4.90;;;16.80;60.00;;;;;;5033875;28;44046;-76
2022/03/06 06:31:11;;;;;;;5.87;5.27;;;16.90;60.10;;;;;;5068611;28;44030;-76
2022/03/06 06:33:40;;;;;;;6.23;5.43;;;17.00;59.80;;;;;;5068602;28;44387;-76
2022/03/06 06:36:08;;;;;;;5.53;5.00;;;17.10;59.40;;;;;;5016368;28;43913;-75
2022/03/06 06:38:38;;;;;;;7.97;5.50;;;17.10;59.20;;;;;;5050180;28;44121;-76
2022/03/06 06:41:07;;;;;;;5.63;5.13;;;17.10;59.20;;;;;;5017316;28;43465;-76
2022/03/06 06:43:35;;;;;;;5.70;5.17;;;17.00;59.30;;;;;;5049822;28;43780;-77
2022/03/06 06:46:04;;;;;;;5.30;4.80;;;17.00;59.50;;;;;;5033872;28;43929;-76
2022/03/06 06:48:32;;;;;;;5.40;4.93;;;16.90;59.60;;;;;;5033582;28;43302;-77
2022/03/06 06:51:01;;;;;;;5.60;5.10;;;16.90;59.80;;;;;;5034214;28;44128;-76
2022/03/06 06:53:30;;;;;;;4.60;4.20;;;16.80;59.80;;;;;;5033102;28;44084;-77
2022/03/06 06:56:00;;;;;;;5.10;4.73;;;16.80;59.90;;;;;;5068368;28;44590;-77
2022/03/06 06:58:29;;;;;;;5.10;4.70;;;16.80;60.00;;;;;;5034783;28;44047;-77
2022/03/06 07:00:58;;;;;;;4.80;4.40;;;16.80;60.10;;;;;;5050373;28;44029;-77
2022/03/06 07:03:27;;;;;;;5.40;4.90;;;16.80;60.10;;;;;;5035040;28;43947;-76
2022/03/06 07:05:58;;;;;;;5.67;5.17;;;16.70;60.60;;;;;;5068264;28;43992;-76
2022/03/06 07:08:26;;;;;;;5.27;4.87;;;16.70;60.10;;;;;;5034365;28;43429;-76
2022/03/06 07:10:54;;;;;;;5.60;5.10;;;16.80;60.30;;;;;;5034755;28;43961;-74
2022/03/06 07:13:24;;;;;;;6.30;4.80;;;16.90;59.90;;;;;;5033869;28;44328;-76
2022/03/06 07:15:53;;;;;;;4.63;4.27;;;17.10;59.60;;;;;;5034269;28;44204;-76
2022/03/06 07:18:23;;;;;;;5.10;4.70;;;17.30;59.10;;;;;;5018308;28;43343;-76
2022/03/06 07:20:52;;;;;;;4.30;3.97;;;17.40;58.80;;;;;;5052013;28;44056;-76
2022/03/06 07:23:21;;;;;;;4.87;4.47;;;17.40;58.50;;;;;;5049241;28;43926;-76
2022/03/06 07:25:50;;;;;;;4.70;4.30;;;17.40;58.60;;;;;;5032957;28;44000;-76
2022/03/06 07:28:19;;;;;;;4.70;4.40;;;17.30;58.80;;;;;;5049126;28;43877;-76
2022/03/06 07:30:49;;;;;;;4.70;4.37;;;17.20;59.10;;;;;;5049523;28;43461;-76
2022/03/06 07:33:18;;;;;;;4.43;4.13;;;17.10;59.30;;;;;;5032843;28;44022;-76
2022/03/06 07:35:48;;;;;;;4.57;4.27;;;17.00;59.40;;;;;;5045155;28;44536;-76
2022/03/06 07:38:17;;;;;;;4.47;4.17;;;16.90;59.50;;;;;;5011814;28;43981;-76
2022/03/06 07:40:46;;;;;;;4.50;4.20;;;16.90;59.70;;;;;;4996860;28;43976;-76
2022/03/06 07:43:15;;;;;;;4.97;4.53;;;16.80;59.70;;;;;;5028764;28;44817;-76
2022/03/06 07:45:44;;;;;;;4.70;4.30;;;16.80;59.80;;;;;;5013391;28;44008;-76
2022/03/06 07:48:14;;;;;;;5.03;4.63;;;16.80;60.20;;;;;;5013520;28;43357;-76
2022/03/06 07:50:43;;;;;;;4.70;4.30;;;16.80;60.00;;;;;;5029774;28;44092;-76
2022/03/06 07:53:12;;;;;;;4.87;4.47;;;17.00;59.80;;;;;;5013064;28;43918;-76
2022/03/06 07:55:40;;;;;;;4.37;4.07;;;17.00;59.30;;;;;;5013563;28;43361;-76
2022/03/06 07:58:10;;;;;;;4.70;4.30;;;17.10;59.20;;;;;;5028925;28;44070;-76
2022/03/06 08:00:38;;;;;;;4.70;4.30;;;17.00;59.30;;;;;;5029595;28;43875;-76
2022/03/06 08:03:08;;;;;;;4.50;4.20;;;16.90;59.40;;;;;;5030159;28;44089;-75
2022/03/06 08:05:38;;;;;;;4.03;3.83;;;16.90;60.20;;;;;;5030751;28;43985;-76
2022/03/06 08:08:09;;;;;;;3.90;3.70;;;16.80;59.70;;;;;;5012872;28;43962;-76
2022/03/06 08:10:38;;;;;;;4.17;3.97;;;16.80;60.40;;;;;;5014645;28;43635;-76
2022/03/06 08:13:10;;;;;;;4.03;3.83;;;16.80;59.90;;;;;;5030927;28;44155;-75
2022/03/06 08:15:38;;;;;;;4.50;4.23;;;16.80;60.00;;;;;;5045918;28;43478;-75
2022/03/06 08:18:08;;;;;;;4.20;4.00;;;16.70;59.90;;;;;;5029926;28;44017;-76
2022/03/06 08:20:38;;;;;;;4.63;4.33;;;16.70;60.00;;;;;;5047712;28;43608;-76
2022/03/06 08:23:08;;;;;;;4.17;3.87;;;16.70;60.00;;;;;;5014765;28;44278;-77
2022/03/06 08:25:37;;;;;;;4.70;4.40;;;16.70;60.10;;;;;;5031473;28;43892;-76
2022/03/06 08:28:05;;;;;;;4.47;4.27;;;16.70;60.20;;;;;;5015551;28;44108;-76
2022/03/06 08:30:35;;;;;;;4.30;4.07;;;16.80;60.10;;;;;;4999707;28;44003;-76
2022/03/06 08:33:04;;;;;;;3.70;3.50;;;17.00;59.70;;;;;;5014527;28;43660;-76
2022/03/06 08:35:33;;;;;;;4.13;3.93;;;17.20;59.50;;;;;;5016957;28;43393;-76
2022/03/06 08:38:04;;;;;;;4.03;3.83;;;17.30;59.10;;;;;;5034444;28;43485;-76
2022/03/06 08:40:33;;;;;;;4.07;3.83;;;17.30;58.80;;;;;;5051364;28;43941;-76
2022/03/06 08:43:05;;;;;;;4.30;4.10;;;17.30;58.80;;;;;;5035647;28;44904;-76
2022/03/06 08:45:36;;;;;;;3.40;3.20;;;17.20;59.00;;;;;;5051248;28;43961;-76
2022/03/06 08:48:06;;;;;;;4.20;4.00;;;17.10;59.20;;;;;;5019448;28;43969;-76
2022/03/06 08:50:35;;;;;;;4.27;4.00;;;17.00;59.40;;;;;;5051375;28;43949;-76
2022/03/06 08:53:06;;;;;;;3.60;3.40;;;16.90;59.50;;;;;;5050209;28;43969;-76
2022/03/06 08:55:35;;;;;;;3.60;3.50;;;16.90;59.60;;;;;;5033621;28;44131;-76
2022/03/06 08:58:03;;;;;;;3.77;3.57;;;16.90;59.80;;;;;;5016496;28;43398;-75
2022/03/06 09:00:32;;;;;;;3.73;3.53;;;16.80;59.80;;;;;;5050368;28;43871;-75
2022/03/06 09:03:01;;;;;;;3.83;3.63;;;16.80;59.90;;;;;;5066201;28;45301;-77
2022/03/06 09:05:30;;;;;;;3.53;3.37;;;16.80;60.10;;;;;;5015986;28;44034;-76
2022/03/06 09:08:00;;;;;;;3.67;3.50;;;16.80;60.20;;;;;;5016616;28;43955;-76
2022/03/06 09:10:30;;;;;;;3.73;3.53;;;16.90;59.80;;;;;;5053215;28;44009;-77
2022/03/06 09:13:00;;;;;;;4.00;3.80;;;17.00;59.40;;;;;;5053155;28;44092;-76
2022/03/06 09:15:29;;;;;;;4.00;3.70;;;17.00;59.20;;;;;;5036207;28;43968;-76
2022/03/06 09:17:59;;;;;;;3.80;3.70;;;17.00;59.40;;;;;;5035943;28;43952;-76
2022/03/06 09:20:28;;;;;;;3.20;3.10;;;17.00;59.50;;;;;;5020580;28;44307;-76
2022/03/06 09:22:56;;;;;;;3.23;3.13;;;16.90;59.60;;;;;;5052203;28;44774;-76
2022/03/06 09:25:25;;;;;;;3.43;3.33;;;16.80;60.30;;;;;;5070268;28;44012;-76
2022/03/06 09:27:55;;;;;;;3.60;3.50;;;16.80;59.80;;;;;;5036600;28;43899;-76
2022/03/06 09:30:24;;;;;;;3.60;3.40;;;16.80;60.00;;;;;;5036226;28;44113;-76
2022/03/06 09:32:53;;;;;;;3.60;3.40;;;16.80;60.00;;;;;;5035800;28;43907;-76
2022/03/06 09:35:21;;;;;;;3.20;3.10;;;16.80;60.10;;;;;;5051598;28;43587;-76
2022/03/06 09:37:51;;;;;;;3.40;3.30;;;16.70;60.10;;;;;;5054569;28;44005;-76
2022/03/06 09:40:19;;;;;;;3.70;3.60;;;16.70;60.10;;;;;;5053477;28;44290;-76
2022/03/06 09:42:48;;;;;;;3.50;3.40;;;16.70;60.20;;;;;;5035535;28;44083;-76
2022/03/06 09:45:18;;;;;;;3.13;3.03;;;16.70;60.40;;;;;;5034494;28;44246;-76
2022/03/06 09:47:47;;;;;;;3.83;3.63;;;16.80;60.50;;;;;;5035952;28;44129;-75
2022/03/06 09:50:16;;;;;;;3.60;3.40;;;17.00;60.10;;;;;;5052833;28;44020;-75
2022/03/06 09:52:45;;;;;;;3.30;3.20;;;17.10;59.70;;;;;;5035601;28;43983;-76
2022/03/06 09:55:13;;;;;;;4.00;3.80;;;17.30;59.40;;;;;;5034302;28;44013;-76
2022/03/06 09:57:41;;;;;;;3.70;3.50;;;17.30;59.00;;;;;;5051765;28;44006;-76
2022/03/06 10:00:13;;;;;;;2.87;2.77;;;17.30;58.80;;;;;;5051016;28;43918;-75
2022/03/06 10:02:54;;;;;;;3.30;3.20;;;17.20;59.00;;;;;;5051844;28;44905;-75
2022/03/06 10:05:29;;;;;;;3.23;3.13;;;17.10;59.20;;;;;;5067999;28;43490;-76
2022/03/06 10:08:24;;;;;;;3.13;3.03;;;17.00;59.30;;;;;;5050757;28;43880;-75
2022/03/06 10:10:54;;;;;;;3.03;2.93;;;17.00;59.60;;;;;;5033529;28;44065;-74
2022/03/06 10:13:25;;;;;;;3.60;3.47;;;16.90;59.80;;;;;;5016459;28;44074;-74
2022/03/06 10:16:02;;;;;;;3.53;3.43;;;16.90;59.90;;;;;;5016980;28;43958;-73
2022/03/06 10:18:35;;;;;;;3.10;3.00;;;16.80;59.90;;;;;;5065510;28;44099;-73
2022/03/06 10:21:11;;;;;;;3.37;3.27;;;16.80;60.00;;;;;;5068109;28;44011;-73
2022/03/06 10:23:39;;;;;;;3.07;2.97;;;16.80;60.20;;;;;;5017272;28;44291;-73
2022/03/06 10:26:09;;;;;;;3.13;3.03;;;16.80;60.30;;;;;;5049059;28;44002;-75
2022/03/06 10:28:48;;;;;;;3.37;3.27;;;17.00;60.10;;;;;;5016660;28;44010;-75
2022/03/06 10:31:18;;;;;;;3.00;2.90;;;17.00;59.60;;;;;;5049839;28;43971;-73
2022/03/06 10:34:07;;;;;;;3.40;3.30;;;17.00;59.60;;;;;;5049313;28;44758;-73
2022/03/06 10:36:40;;;;;;;2.80;2.70;;;17.00;59.70;;;;;;5028433;28;44141;-73
2022/03/06 10:39:14;;;;;;;3.10;3.00;;;17.00;59.80;;;;;;5062249;28;43985;-74
2022/03/06 10:41:43;;;;;;;2.90;2.80;;;16.90;59.90;;;;;;5013310;28;44205;-73
2022/03/06 10:44:12;;;;;;;3.00;2.90;;;16.90;60.00;;;;;;5046120;28;45127;-73
2022/03/06 10:46:41;;;;;;;3.27;3.17;;;16.80;60.00;;;;;;5013023;28;44514;-74
2022/03/06 10:49:13;;;;;;;2.83;2.73;;;16.80;60.10;;;;;;5028713;28;43395;-73
2022/03/06 10:51:43;;;;;;;3.10;3.00;;;16.80;60.20;;;;;;5029651;28;43620;-73
2022/03/06 10:54:13;;;;;;;3.10;3.00;;;16.80;60.30;;;;;;5012240;28;44331;-73
2022/03/06 10:56:43;;;;;;;2.67;2.67;;;16.80;60.40;;;;;;5045401;28;43921;-74
2022/03/06 10:59:19;;;;;;;2.70;2.70;;;16.80;60.40;;;;;;5029627;28;44012;-74
2022/03/06 11:01:47;;;;;;;3.27;3.17;;;16.80;60.40;;;;;;5029732;28;43487;-73
2022/03/06 11:04:17;;;;;;;2.70;2.60;;;16.80;60.60;;;;;;5027958;28;45025;-73
2022/03/06 11:06:47;;;;;;;2.87;2.77;;;16.90;60.40;;;;;;5045332;28;43924;-74
2022/03/06 11:09:16;;;;;;;3.13;3.03;;;17.10;59.90;;;;;;5028150;28;43409;-73
2022/03/06 11:11:45;;;;;;;3.17;3.07;;;17.20;59.60;;;;;;5029269;28;44132;-73
2022/03/06 11:14:14;;;;;;;2.83;2.73;;;17.30;59.20;;;;;;5044448;28;43967;-74
2022/03/06 11:16:42;;;;;;;2.90;2.80;;;17.30;59.00;;;;;;5045106;28;43820;-73
2022/03/06 11:19:11;;;;;;;3.00;2.90;;;17.30;59.20;;;;;;5028366;28;43584;-73
2022/03/06 11:21:42;;;;;;;2.70;2.60;;;17.20;59.40;;;;;;5028701;28;43965;-73
2022/03/06 11:24:12;;;;;;;2.70;2.70;;;17.10;59.60;;;;;;5044515;28;44765;-73
2022/03/06 11:27:16;;;;;;;2.97;2.87;;;17.10;60.40;;;;;;5061830;28;43764;-74
2022/03/06 11:30:06;;;;;;;2.60;2.50;;;17.00;59.90;;;;;;5046448;28;43435;-73
2022/03/06 11:32:36;;;;;;;2.67;2.57;;;16.90;60.00;;;;;;5035596;28;43630;-75
2022/03/06 11:35:07;;;;;;;2.90;2.80;;;16.90;60.20;;;;;;5044621;28;44073;-74
2022/03/06 11:37:52;;;;;;;2.57;2.57;;;16.90;60.30;;;;;;5012277;28;43435;-75
2022/03/06 11:40:48;;;;;;;2.80;2.70;;;16.90;60.30;;;;;;5044373;28;44025;-73
2022/03/06 11:43:38;;;;;;;2.80;2.70;;;16.90;60.40;;;;;;5029431;28;43999;-75
2022/03/06 11:46:15;;;;;;;2.73;2.63;;;17.00;60.20;;;;;;5045011;28;45898;-79
2022/03/06 11:49:12;;;;;;;2.97;2.87;;;17.10;59.80;;;;;;5029113;28;43934;-73
2022/03/06 11:51:47;;;;;;;2.40;2.40;;;17.10;59.80;;;;;;5046545;28;43929;-74
2022/03/06 11:54:22;;;;;;;2.63;2.53;;;17.10;60.00;;;;;;5028817;28;43580;-74
2022/03/06 11:57:05;;;;;;;3.00;2.90;;;17.00;60.00;;;;;;5045111;28;44355;-74
2022/03/06 11:59:37;;;;;;;2.77;2.60;;;17.00;60.10;;;;;;5036353;28;44100;-75
2022/03/06 12:02:08;;;;;;;2.50;2.50;;;16.90;60.20;;;;;;5044683;28;43821;-74
2022/03/06 12:04:39;;;;;;;2.80;2.70;;;16.90;60.30;;;;;;5044829;28;43482;-75
2022/03/06 12:07:08;;;;;;;2.37;2.37;;;16.90;60.50;;;;;;5043868;28;43905;-74
2022/03/06 12:09:41;;;;;;;2.50;2.40;;;16.90;60.50;;;;;;5011614;28;43930;-75
2022/03/06 12:12:11;;;;;;;2.37;2.27;;;16.90;60.60;;;;;;5028112;28;43994;-73
2022/03/06 12:14:41;;;;;;;2.60;2.60;;;16.80;60.50;;;;;;5045288;28;43985;-74
2022/03/06 12:17:33;;;;;;;2.80;2.70;;;16.80;60.50;;;;;;5043842;28;45752;-75
2022/03/06 12:20:25;;;;;;;2.33;2.33;;;16.80;60.70;;;;;;5044275;28;44304;-74
2022/03/06 12:23:02;;;;;;;2.80;2.73;;;16.90;60.60;;;;;;5028406;28;43834;-74
2022/03/06 12:25:34;;;;;;;2.50;2.50;;;17.00;60.30;;;;;;5044242;28;44004;-75
2022/03/06 12:28:18;;;;;;;2.30;2.30;;;17.20;60.00;;;;;;5044242;28;43922;-74
2022/03/06 12:30:46;;;;;;;2.43;2.43;;;17.30;59.60;;;;;;5027297;28;43947;-74
2022/03/06 12:33:39;;;;;;;2.20;2.20;;;17.30;59.40;;;;;;5060601;28;43377;-74
2022/03/06 12:36:26;;;;;;;2.27;2.27;;;17.30;59.50;;;;;;5027561;28;44108;-74
2022/03/06 12:39:05;;;;;;;2.67;2.67;;;17.20;59.70;;;;;;5044088;28;44062;-73
2022/03/06 12:41:35;;;;;;;2.70;2.60;;;17.20;60.60;;;;;;5045965;28;44067;-73
2022/03/06 12:44:06;;;;;;;2.30;2.27;;;17.10;60.00;;;;;;5029609;28;43885;-74
2022/03/06 12:46:35;;;;;;;2.40;2.30;;;17.00;60.00;;;;;;5031275;28;44112;-73
2022/03/06 12:49:04;;;;;;;2.40;2.40;;;17.00;60.20;;;;;;5047219;28;43833;-74
2022/03/06 12:51:38;;;;;;;2.40;2.40;;;17.00;60.30;;;;;;5014084;28;43388;-74
2022/03/06 12:54:17;;;;;;;2.20;2.20;;;17.00;60.40;;;;;;5049038;28;43923;-74
2022/03/06 12:56:46;;;;;;;2.30;2.30;;;16.90;60.40;;;;;;5049160;28;44023;-74
2022/03/06 12:59:19;;;;;;;2.43;2.33;;;16.90;60.40;;;;;;5046766;28;43919;-74
2022/03/06 13:01:48;;;;;;;2.37;2.37;;;16.90;60.40;;;;;;5064224;28;43973;-73